Terminal Aerodrome Forecast
Issued by NWS Albuquerque, NM

Home | Current Version | Previous Version | Text Only | Print | Product List | Glossary On
Versions: 1 2 3 4 5 6 7 8 9 10 11 12 13 14 15 16 17
000
FTUS45 KABQ 031734
TAFABQ
TAF
KABQ 031734Z 0318/0418 24010KT P6SM SCT070 BKN150
     FM032200 24012KT P6SM VCTS BKN070CB BKN130
     FM040200 16007KT P6SM VCSH SCT060 BKN100
     FM040500 15006KT P6SM SCT070 BKN120
     FM041600 22007KT P6SM FEW060 BKN150=

USA.gov is the U.S. government's official web portal to all federal, state and local government web resources and services.